createdAt,value
2018-06-25T00:00:31.942Z,14.10
2018-06-25T00:03:02.489Z,14.10
2018-06-25T00:05:33.066Z,14.20
2018-06-25T00:08:03.689Z,14.20
2018-06-25T00:10:34.406Z,14.10
2018-06-25T00:13:04.987Z,14.10
2018-06-25T00:15:35.853Z,14.20
2018-06-25T00:18:07.142Z,14.10
2018-06-25T00:20:37.776Z,14.10
2018-06-25T00:23:08.499Z,14.10
2018-06-25T00:25:39.239Z,14.10
2018-06-25T00:28:09.802Z,14.20
2018-06-25T00:30:40.417Z,14.10
2018-06-25T00:33:10.916Z,14.10
2018-06-25T00:35:41.511Z,14.10
2018-06-25T00:38:12.090Z,14.10
2018-06-25T00:40:42.745Z,14.00
2018-06-25T00:43:13.272Z,14.00
2018-06-25T00:45:43.870Z,14.00
2018-06-25T00:48:14.427Z,13.90
2018-06-25T00:50:44.969Z,13.90
2018-06-25T00:53:15.471Z,13.90
2018-06-25T00:55:46.155Z,13.90
2018-06-25T00:58:17.134Z,13.90
2018-06-25T01:00:47.721Z,13.80
2018-06-25T01:03:18.269Z,13.80
2018-06-25T01:05:48.828Z,13.80
2018-06-25T01:08:19.367Z,13.80
2018-06-25T01:10:49.964Z,13.80
2018-06-25T01:13:20.505Z,13.80
2018-06-25T01:15:51.065Z,13.80
2018-06-25T01:18:21.616Z,13.80
2018-06-25T01:20:52.187Z,13.70
2018-06-25T01:23:22.758Z,13.80
2018-06-25T01:25:53.437Z,13.80
2018-06-25T01:28:24.531Z,13.80
2018-06-25T01:30:55.110Z,13.70
2018-06-25T01:33:25.596Z,13.70
2018-06-25T01:35:56.141Z,13.70
2018-06-25T01:38:26.621Z,13.60
2018-06-25T01:40:57.221Z,13.60
2018-06-25T01:43:27.738Z,13.50
2018-06-25T01:45:58.263Z,13.50
2018-06-25T01:48:28.819Z,13.50
2018-06-25T01:50:59.411Z,13.50
2018-06-25T01:53:30.855Z,13.50
2018-06-25T01:58:31.761Z,13.50
2018-06-25T02:01:02.327Z,13.50
2018-06-25T02:03:32.891Z,13.40
2018-06-25T02:06:03.442Z,13.40
2018-06-25T02:08:34.007Z,13.40
2018-06-25T02:11:04.621Z,13.30
2018-06-25T02:13:35.173Z,13.20
2018-06-25T02:16:05.946Z,13.20
2018-06-25T02:18:36.510Z,13.20
2018-06-25T02:21:07.269Z,13.20
2018-06-25T02:23:37.833Z,13.20
2018-06-25T02:26:08.563Z,13.10
2018-06-25T02:28:39.131Z,13.10
2018-06-25T02:31:09.718Z,13.10
2018-06-25T02:36:10.539Z,13.10
2018-06-25T02:38:41.636Z,13.10
2018-06-25T02:41:12.232Z,13.00
2018-06-25T02:43:42.955Z,13.10
2018-06-25T02:46:13.526Z,13.00
2018-06-25T02:48:45.518Z,13.00
2018-06-25T02:51:16.090Z,13.00
2018-06-25T02:53:46.773Z,13.10
2018-06-25T02:56:17.481Z,13.00
2018-06-25T02:58:48.255Z,13.10
2018-06-25T03:01:18.908Z,13.10
2018-06-25T03:03:49.555Z,13.00
2018-06-25T03:06:20.093Z,13.00
2018-06-25T03:08:50.987Z,13.00
2018-06-25T03:11:21.554Z,13.00
2018-06-25T03:13:52.182Z,13.00
2018-06-25T03:16:22.713Z,12.90
2018-06-25T03:18:54.150Z,12.90
2018-06-25T03:23:54.779Z,12.90
2018-06-25T03:26:25.407Z,12.90
2018-06-25T03:28:55.909Z,12.90
2018-06-25T03:31:26.470Z,12.90
2018-06-25T03:33:57.506Z,12.90
2018-06-25T03:36:28.078Z,12.90
2018-06-25T03:38:58.597Z,12.90
2018-06-25T03:41:29.309Z,12.90
2018-06-25T03:43:59.966Z,13.00
2018-06-25T03:46:30.530Z,13.00
2018-06-25T03:49:01.097Z,12.90
2018-06-25T03:51:31.649Z,12.90
2018-06-25T03:54:02.274Z,12.90
2018-06-25T03:56:32.854Z,12.90
2018-06-25T03:59:03.730Z,12.90
2018-06-25T04:01:34.329Z,12.90
2018-06-25T04:04:04.985Z,12.90
2018-06-25T04:06:35.600Z,12.90
2018-06-25T04:09:10.389Z,12.90
2018-06-25T04:11:41.474Z,12.90
2018-06-25T04:14:12.110Z,13.00
2018-06-25T04:16:42.647Z,13.00
2018-06-25T04:19:13.270Z,13.10
2018-06-25T04:21:43.849Z,13.10
2018-06-25T04:24:14.422Z,13.10
2018-06-25T04:26:45.035Z,13.10
2018-06-25T04:29:15.573Z,13.10
2018-06-25T04:31:46.132Z,13.20
2018-06-25T04:34:16.646Z,13.20
2018-06-25T04:36:47.256Z,13.30
2018-06-25T04:39:17.829Z,13.40
2018-06-25T04:41:48.416Z,13.40
2018-06-25T04:44:18.980Z,13.50
2018-06-25T04:46:49.520Z,13.50
2018-06-25T04:49:20.067Z,13.60
2018-06-25T04:51:50.648Z,13.60
2018-06-25T04:54:21.187Z,13.70
2018-06-25T04:56:51.885Z,13.70
2018-06-25T04:59:22.724Z,13.70
2018-06-25T05:01:53.338Z,13.70
2018-06-25T05:04:23.976Z,13.70
2018-06-25T05:06:54.516Z,13.70
2018-06-25T05:09:25.197Z,13.70
2018-06-25T05:11:55.758Z,13.70
2018-06-25T05:14:28.246Z,13.70
2018-06-25T05:16:58.805Z,13.60
2018-06-25T05:19:29.362Z,13.70
2018-06-25T05:21:59.952Z,13.70
2018-06-25T05:24:30.508Z,13.70
2018-06-25T05:27:01.163Z,13.70
2018-06-25T05:29:31.716Z,13.70
2018-06-25T05:32:02.519Z,13.70
2018-06-25T05:34:33.053Z,13.70
2018-06-25T05:37:03.753Z,13.70
2018-06-25T05:39:34.343Z,13.70
2018-06-25T05:42:06.115Z,13.60
2018-06-25T05:44:36.708Z,13.60
2018-06-25T05:47:07.322Z,13.60
2018-06-25T05:49:37.847Z,13.60
2018-06-25T05:52:08.507Z,13.70
2018-06-25T05:54:39.094Z,13.70
2018-06-25T05:57:09.710Z,13.80
2018-06-25T05:59:40.714Z,13.80
2018-06-25T06:02:11.295Z,13.80
2018-06-25T06:04:41.836Z,13.90
2018-06-25T06:07:12.643Z,13.90
2018-06-25T06:09:43.220Z,14.00
2018-06-25T06:12:13.897Z,14.10
2018-06-25T06:14:44.468Z,14.20
2018-06-25T06:17:15.065Z,14.20
2018-06-25T06:19:45.630Z,14.30
2018-06-25T06:22:16.240Z,14.30
2018-06-25T06:24:46.816Z,14.50
2018-06-25T06:27:17.410Z,14.60
2018-06-25T06:29:47.923Z,14.70
2018-06-25T06:32:18.481Z,14.80
2018-06-25T06:34:49.011Z,14.90
2018-06-25T06:37:19.600Z,15.00
2018-06-25T06:39:50.122Z,15.10
2018-06-25T06:42:20.665Z,15.20
2018-06-25T06:44:51.221Z,15.20
2018-06-25T06:47:21.797Z,15.30
2018-06-25T06:49:52.380Z,15.30
2018-06-25T06:52:23.061Z,15.30
2018-06-25T06:54:54.024Z,15.40
2018-06-25T06:57:24.664Z,15.50
2018-06-25T06:59:55.177Z,15.50
2018-06-25T07:02:25.721Z,15.60
2018-06-25T07:04:56.285Z,15.70
2018-06-25T07:07:26.831Z,15.80
2018-06-25T07:09:57.332Z,15.90
2018-06-25T07:12:28.083Z,16.00
2018-06-25T07:14:58.650Z,16.00
2018-06-25T07:17:29.225Z,16.00
2018-06-25T07:19:59.775Z,15.90
2018-06-25T07:22:30.318Z,16.00
2018-06-25T07:25:00.892Z,16.10
2018-06-25T07:27:31.485Z,16.10
2018-06-25T07:30:02.123Z,16.20
2018-06-25T07:32:32.649Z,16.40
2018-06-25T07:35:03.509Z,16.40
2018-06-25T07:37:34.109Z,16.50
2018-06-25T07:40:04.673Z,16.70
2018-06-25T07:42:35.257Z,16.90
2018-06-25T07:45:05.829Z,17.00
2018-06-25T07:47:36.393Z,17.00
2018-06-25T07:52:37.097Z,17.30
2018-06-25T07:55:07.654Z,17.50
2018-06-25T07:57:38.217Z,17.60
2018-06-25T08:00:08.858Z,17.70
2018-06-25T08:02:39.385Z,17.70
2018-06-25T08:05:10.305Z,17.80
2018-06-25T08:10:10.992Z,18.00
2018-06-25T08:12:41.674Z,18.00
2018-06-25T08:15:12.189Z,18.10
2018-06-25T08:17:42.745Z,18.20
2018-06-25T08:20:13.283Z,18.40
2018-06-25T08:25:13.992Z,18.70
2018-06-25T08:27:44.519Z,19.00
2018-06-25T08:30:15.153Z,19.10
2018-06-25T08:32:45.612Z,19.20
2018-06-25T08:37:46.552Z,19.70
2018-06-25T08:40:17.274Z,19.80
2018-06-25T08:42:48.116Z,20.00
2018-06-25T08:45:18.678Z,20.00
2018-06-25T08:47:49.177Z,19.80
2018-06-25T08:50:19.734Z,19.80
2018-06-25T08:52:50.333Z,20.00
2018-06-25T08:55:20.878Z,20.10
2018-06-25T08:57:51.426Z,20.30
2018-06-25T09:00:22.069Z,20.30
2018-06-25T09:02:52.629Z,20.40
2018-06-25T09:05:23.197Z,20.40
2018-06-25T09:07:53.745Z,20.30
2018-06-25T09:10:24.240Z,19.80
2018-06-25T09:12:54.821Z,19.10
2018-06-25T09:15:25.419Z,18.70
2018-06-25T09:17:55.933Z,18.50
2018-06-25T09:20:26.808Z,18.30
2018-06-25T09:22:57.386Z,18.30
2018-06-25T09:25:28.013Z,18.40
2018-06-25T09:28:05.057Z,18.30
2018-06-25T09:30:35.604Z,18.40
2018-06-25T09:33:06.393Z,18.60
2018-06-25T09:38:07.205Z,18.60
2018-06-25T09:40:37.705Z,18.80
2018-06-25T09:43:08.246Z,18.80
2018-06-25T09:45:38.770Z,18.90
2018-06-25T09:48:09.330Z,19.10
2018-06-25T09:50:39.893Z,19.30
2018-06-25T09:55:40.496Z,19.70
2018-06-25T09:58:11.073Z,19.80
2018-06-25T10:00:46.799Z,19.90
2018-06-25T10:03:17.349Z,20.00
2018-06-25T10:08:17.991Z,20.50
2018-06-25T10:10:48.528Z,20.80
2018-06-25T10:15:49.158Z,20.90
2018-06-25T10:18:19.737Z,21.10
2018-06-25T10:20:50.272Z,21.30
2018-06-25T10:23:20.787Z,21.40
2018-06-25T10:25:51.284Z,21.40
2018-06-25T10:28:22.289Z,21.40
2018-06-25T10:30:52.817Z,21.30
2018-06-25T10:33:23.393Z,21.20
2018-06-25T10:35:53.929Z,21.00
2018-06-25T10:38:24.422Z,20.80
2018-06-25T10:40:54.968Z,20.80
2018-06-25T10:45:55.598Z,21.10
2018-06-25T10:48:26.171Z,21.30
2018-06-25T10:50:56.717Z,21.60
2018-06-25T10:53:27.245Z,21.90
2018-06-25T10:55:57.773Z,22.10
2018-06-25T10:58:28.298Z,22.10
2018-06-25T11:00:58.867Z,22.20
2018-06-25T11:03:29.732Z,22.10
2018-06-25T11:06:00.301Z,22.00
2018-06-25T11:08:30.798Z,22.00
2018-06-25T11:11:01.386Z,22.10
2018-06-25T11:13:31.995Z,22.40
2018-06-25T11:18:32.560Z,23.20
2018-06-25T11:21:03.166Z,23.90
2018-06-25T11:23:33.661Z,24.40
2018-06-25T11:26:04.226Z,24.50
2018-06-25T11:28:34.775Z,24.50
2018-06-25T11:31:05.956Z,24.60
2018-06-25T11:36:06.673Z,24.20
2018-06-25T11:38:37.241Z,24.00
2018-06-25T11:41:07.779Z,23.80
2018-06-25T11:43:38.332Z,23.60
2018-06-25T11:46:08.873Z,23.40
2018-06-25T11:48:40.241Z,23.30
2018-06-25T11:51:10.799Z,23.10
2018-06-25T11:53:41.290Z,22.90
2018-06-25T11:56:11.840Z,22.80
2018-06-25T11:58:42.397Z,22.70
2018-06-25T12:01:12.933Z,22.60
2018-06-25T12:03:43.557Z,22.60
2018-06-25T12:06:14.078Z,22.60
2018-06-25T12:11:14.766Z,22.10
2018-06-25T12:13:45.414Z,21.80
2018-06-25T12:16:15.941Z,21.60
2018-06-25T12:18:46.582Z,21.30
2018-06-25T12:21:17.170Z,21.00
2018-06-25T12:23:47.769Z,20.80
2018-06-25T12:26:19.949Z,20.50
2018-06-25T12:28:50.626Z,20.30
2018-06-25T12:31:21.354Z,20.10
2018-06-25T12:33:51.932Z,19.80
2018-06-25T12:36:22.514Z,19.50
2018-06-25T12:38:53.150Z,19.30
2018-06-25T12:41:23.753Z,19.20
2018-06-25T12:43:54.345Z,19.10
2018-06-25T12:46:24.885Z,19.00
2018-06-25T12:48:55.561Z,18.90
2018-06-25T12:51:26.108Z,18.90
2018-06-25T12:53:57.077Z,18.80
2018-06-25T12:56:27.716Z,18.80
2018-06-25T13:01:28.473Z,19.00
2018-06-25T13:03:58.937Z,19.20
2018-06-25T13:06:29.524Z,19.30
2018-06-25T13:09:00.826Z,19.40
2018-06-25T13:11:31.350Z,19.50
2018-06-25T13:14:01.901Z,19.50
2018-06-25T13:16:32.517Z,19.60
2018-06-25T13:19:03.122Z,19.70
2018-06-25T13:21:33.707Z,19.80
2018-06-25T13:24:04.805Z,19.80
2018-06-25T13:26:35.373Z,20.00
2018-06-25T13:29:06.083Z,20.10
2018-06-25T13:31:36.694Z,20.30
2018-06-25T13:34:07.274Z,20.70
2018-06-25T13:36:37.866Z,21.90
2018-06-25T13:39:09.992Z,23.30
2018-06-25T13:41:40.826Z,23.60
2018-06-25T13:46:42.614Z,23.10
2018-06-25T13:49:13.170Z,22.90
2018-06-25T13:51:43.734Z,22.50
2018-06-25T13:54:14.329Z,22.30
2018-06-25T13:56:44.944Z,21.90
2018-06-25T13:59:15.544Z,21.70
2018-06-25T14:01:46.131Z,21.60
2018-06-25T14:04:16.884Z,21.60
2018-06-25T14:06:47.455Z,22.30
2018-06-25T14:09:18.125Z,22.90
2018-06-25T14:11:48.747Z,23.50
2018-06-25T14:14:19.373Z,24.50
2018-06-25T14:16:50.122Z,25.50
2018-06-25T14:19:20.589Z,26.20
2018-06-25T14:21:51.102Z,26.90
2018-06-25T14:24:27.009Z,27.40
2018-06-25T14:27:02.683Z,27.90
2018-06-25T14:29:36.422Z,28.10
2018-06-25T14:32:12.358Z,27.90
2018-06-25T14:34:43.601Z,27.90
2018-06-25T14:37:14.158Z,27.60
2018-06-25T14:39:44.786Z,27.60
2018-06-25T14:42:15.686Z,28.10
2018-06-25T14:44:46.280Z,28.30
2018-06-25T14:47:16.776Z,28.20
2018-06-25T14:49:47.505Z,28.50
2018-06-25T14:52:18.102Z,29.20
2018-06-25T14:54:48.668Z,29.90
2018-06-25T14:57:19.329Z,29.70
2018-06-25T14:59:50.469Z,29.00
2018-06-25T15:04:51.382Z,26.80
2018-06-25T15:07:21.968Z,25.70
2018-06-25T15:09:52.628Z,24.70
2018-06-25T15:12:23.263Z,24.00
2018-06-25T15:14:53.882Z,23.40
2018-06-25T15:17:24.458Z,23.00
2018-06-25T15:19:55.056Z,22.80
2018-06-25T15:22:25.626Z,22.70
2018-06-25T15:24:56.260Z,22.60
2018-06-25T15:27:26.853Z,22.70
2018-06-25T15:29:57.818Z,22.70
2018-06-25T15:32:32.030Z,23.50
2018-06-25T15:35:02.617Z,24.50
2018-06-25T15:37:33.194Z,24.50
2018-06-25T15:40:03.926Z,24.00
2018-06-25T15:42:34.510Z,23.50
2018-06-25T15:45:05.318Z,23.10
2018-06-25T15:47:36.050Z,22.90
2018-06-25T15:52:36.881Z,22.30
2018-06-25T15:55:07.525Z,22.10
2018-06-25T16:00:08.480Z,21.80
2018-06-25T16:02:39.090Z,21.70
2018-06-25T16:05:09.711Z,21.50
2018-06-25T16:07:40.379Z,21.30
2018-06-25T16:10:11.118Z,21.20
2018-06-25T16:12:41.778Z,21.00
2018-06-25T16:15:12.413Z,20.80
2018-06-25T16:17:43.159Z,20.70
2018-06-25T16:20:13.781Z,20.60
2018-06-25T16:22:44.420Z,20.50
2018-06-25T16:25:15.081Z,20.40
2018-06-25T16:27:45.746Z,20.30
2018-06-25T16:32:46.537Z,20.20
2018-06-25T16:35:17.205Z,20.10
2018-06-25T16:37:47.819Z,20.10
2018-06-25T16:40:18.434Z,20.00
2018-06-25T16:42:49.035Z,19.90
2018-06-25T16:45:19.737Z,19.90
2018-06-25T16:47:50.549Z,19.80
2018-06-25T16:50:21.161Z,19.80
2018-06-25T16:52:51.775Z,19.80
2018-06-25T16:55:22.373Z,19.70
2018-06-25T16:57:52.930Z,19.60
2018-06-25T17:00:23.518Z,19.60
2018-06-25T17:02:54.612Z,19.40
2018-06-25T17:05:25.396Z,19.20
2018-06-25T17:07:55.978Z,19.10
2018-06-25T17:10:26.714Z,19.00
2018-06-25T17:12:57.363Z,18.80
2018-06-25T17:15:28.197Z,18.70
2018-06-25T17:17:58.830Z,18.70
2018-06-25T17:20:29.374Z,18.70
2018-06-25T17:22:59.985Z,18.60
2018-06-25T17:25:30.644Z,18.70
2018-06-25T17:28:01.177Z,18.60
2018-06-25T17:30:31.794Z,18.60
2018-06-25T17:33:02.797Z,18.60
2018-06-25T17:35:33.414Z,18.50
2018-06-25T17:38:04.004Z,18.50
2018-06-25T17:40:34.621Z,18.50
2018-06-25T17:43:05.563Z,18.50
2018-06-25T17:45:37.034Z,18.40
2018-06-25T17:48:07.826Z,18.40
2018-06-25T17:50:38.486Z,18.30
2018-06-25T17:53:09.814Z,18.30
2018-06-25T17:55:40.405Z,18.20
2018-06-25T17:58:11.030Z,18.10
2018-06-25T18:00:41.690Z,18.10
2018-06-25T18:03:12.917Z,18.00
2018-06-25T18:05:44.051Z,17.90
2018-06-25T18:08:15.040Z,17.90
2018-06-25T18:10:45.846Z,17.90
2018-06-25T18:13:16.486Z,17.80
2018-06-25T18:15:47.115Z,17.70
2018-06-25T18:18:22.798Z,17.70
2018-06-25T18:20:53.676Z,17.60
2018-06-25T18:23:24.282Z,17.50
2018-06-25T18:25:54.993Z,17.50
2018-06-25T18:28:25.735Z,17.40
2018-06-25T18:33:26.478Z,17.20
2018-06-25T18:35:57.259Z,17.20
2018-06-25T18:38:27.841Z,17.10
2018-06-25T18:40:58.854Z,17.00
2018-06-25T18:43:29.477Z,17.00
2018-06-25T18:46:00.055Z,17.00
2018-06-25T18:48:30.691Z,17.00
2018-06-25T18:51:01.392Z,16.90
2018-06-25T18:53:33.262Z,16.90
2018-06-25T18:56:03.965Z,16.80
2018-06-25T18:58:34.609Z,16.80
2018-06-25T19:01:05.252Z,16.80
2018-06-25T19:03:35.860Z,16.70
2018-06-25T19:06:06.591Z,16.60
2018-06-25T19:08:37.171Z,16.50
2018-06-25T19:11:07.778Z,16.40
2018-06-25T19:13:38.357Z,16.40
2018-06-25T19:18:39.241Z,16.30
2018-06-25T19:21:09.922Z,16.30
2018-06-25T19:23:41.110Z,16.30
2018-06-25T19:26:11.753Z,16.20
2018-06-25T19:28:42.353Z,16.30
2018-06-25T19:31:12.887Z,16.30
2018-06-25T19:33:43.446Z,16.30
2018-06-25T19:36:14.123Z,16.30
2018-06-25T19:38:44.676Z,16.20
2018-06-25T19:41:15.273Z,16.20
2018-06-25T19:43:45.801Z,16.10
2018-06-25T19:46:16.438Z,16.10
2018-06-25T19:48:47.089Z,16.00
2018-06-25T19:51:17.732Z,16.00
2018-06-25T19:53:48.681Z,16.00
2018-06-25T19:56:19.378Z,16.00
2018-06-25T19:58:49.909Z,16.00
2018-06-25T20:01:20.493Z,15.90
2018-06-25T20:03:51.121Z,15.90
2018-06-25T20:06:21.721Z,15.90
2018-06-25T20:08:52.332Z,15.80
2018-06-25T20:11:23.018Z,15.80
2018-06-25T20:13:53.612Z,15.70
2018-06-25T20:16:24.294Z,15.70
2018-06-25T20:18:54.879Z,15.60
2018-06-25T20:21:25.434Z,15.60
2018-06-25T20:23:55.989Z,15.60
2018-06-25T20:26:26.673Z,15.50
2018-06-25T20:28:57.297Z,15.50
2018-06-25T20:31:27.910Z,15.50
2018-06-25T20:36:28.606Z,15.40
2018-06-25T20:38:59.407Z,15.40
2018-06-25T20:41:30.279Z,15.30
2018-06-25T20:44:01.036Z,15.30
2018-06-25T20:46:31.642Z,15.30
2018-06-25T20:49:02.231Z,15.20
2018-06-25T20:51:33.011Z,15.20
2018-06-25T20:54:03.735Z,15.10
2018-06-25T20:56:34.371Z,15.10
2018-06-25T20:59:05.143Z,15.00
2018-06-25T21:01:35.737Z,14.90
2018-06-25T21:04:06.393Z,14.80
2018-06-25T21:06:37.026Z,14.80
2018-06-25T21:09:11.098Z,14.70
2018-06-25T21:11:42.451Z,14.70
2018-06-25T21:14:12.977Z,14.70
2018-06-25T21:16:43.786Z,14.60
2018-06-25T21:19:14.333Z,14.60
2018-06-25T21:21:44.923Z,14.60
2018-06-25T21:24:15.461Z,14.50
2018-06-25T21:26:46.082Z,14.50
2018-06-25T21:29:16.633Z,14.40
2018-06-25T21:31:47.256Z,14.40
2018-06-25T21:34:17.828Z,14.40
2018-06-25T21:36:48.422Z,14.30
2018-06-25T21:39:19.017Z,14.30
2018-06-25T21:44:41.341Z,14.20
2018-06-25T21:47:12.010Z,14.20
2018-06-25T21:49:42.598Z,14.20
2018-06-25T21:52:13.328Z,14.10
2018-06-25T21:54:44.043Z,14.10
2018-06-25T21:57:14.598Z,14.10
2018-06-25T21:59:45.159Z,14.00
2018-06-25T22:02:16.341Z,14.00
2018-06-25T22:04:46.871Z,13.90
2018-06-25T22:07:17.838Z,13.90
2018-06-25T22:09:48.438Z,13.80
2018-06-25T22:12:18.991Z,13.70
2018-06-25T22:14:49.593Z,13.70
2018-06-25T22:17:20.166Z,13.70
2018-06-25T22:19:50.701Z,13.70
2018-06-25T22:22:21.278Z,13.60
2018-06-25T22:24:51.806Z,13.60
2018-06-25T22:27:22.416Z,13.50
2018-06-25T22:29:52.977Z,13.50
2018-06-25T22:32:23.577Z,13.50
2018-06-25T22:34:54.125Z,13.40
2018-06-25T22:37:24.789Z,13.40
2018-06-25T22:39:55.318Z,13.40
2018-06-25T22:42:27.805Z,13.30
2018-06-25T22:44:58.309Z,13.30
2018-06-25T22:49:58.990Z,13.20
2018-06-25T22:52:29.525Z,13.10
2018-06-25T22:55:00.131Z,13.10
2018-06-25T22:57:30.683Z,13.00
2018-06-25T23:00:01.299Z,12.90
2018-06-25T23:02:32.325Z,12.90
2018-06-25T23:05:03.006Z,12.90
2018-06-25T23:07:33.514Z,12.90
2018-06-25T23:10:04.130Z,12.80
2018-06-25T23:12:34.715Z,12.80
2018-06-25T23:15:05.381Z,12.70
2018-06-25T23:17:35.901Z,12.70
2018-06-25T23:20:06.489Z,12.60
2018-06-25T23:22:37.098Z,12.60
2018-06-25T23:25:07.808Z,12.60
2018-06-25T23:27:38.749Z,12.60
2018-06-25T23:30:09.310Z,12.50
2018-06-25T23:32:39.961Z,12.50
2018-06-25T23:35:10.585Z,12.40
2018-06-25T23:37:41.206Z,12.30
2018-06-25T23:40:12.405Z,12.30
2018-06-25T23:42:43.008Z,12.20
2018-06-25T23:45:13.713Z,12.20
2018-06-25T23:47:44.279Z,12.10
2018-06-25T23:50:14.921Z,12.20
2018-06-25T23:52:45.518Z,12.10
2018-06-25T23:55:16.327Z,12.10
2018-06-25T23:57:46.939Z,12.20
